Time;durP1;ratioP1;P1;durP2;ratioP2;P2;SDS_P1;SDS_P2;PMS_P1;PMS_P2;Temp;Humidity;BMP_temperature;BMP_pressure;BME280_temperature;BME280_humidity;BME280_pressure;Samples;Min_cycle;Max_cycle;Signal;HPM_P1;HPM_P2
2022/01/09 00:00:24;;;;;;;23.50;9.73;;;;;;;6.41;35.65;99726.06;5092879;28;20122;-76
2022/01/09 00:02:51;;;;;;;18.40;9.53;;;;;;;5.83;36.35;99723.94;5076456;28;20043;-74
2022/01/09 00:05:17;;;;;;;22.53;10.30;;;;;;;5.86;35.59;99758.00;5096122;28;20496;-76
2022/01/09 00:07:43;;;;;;;21.53;9.80;;;;;;;5.56;36.13;99758.63;5079173;28;20048;-76
2022/01/09 00:10:09;;;;;;;18.07;8.57;;;;;;;5.42;36.27;99756.28;5057779;28;20075;-76
2022/01/09 00:12:35;;;;;;;21.77;9.67;;;;;;;5.69;36.07;99761.13;5073730;28;20151;-76
2022/01/09 00:15:02;;;;;;;18.07;9.13;;;;;;;5.63;36.16;99762.44;5092640;28;20093;-76
2022/01/09 00:17:31;;;;;;;20.47;9.00;;;;;;;5.47;36.03;99755.91;5091178;28;20130;-76
2022/01/09 00:19:57;;;;;;;18.27;8.63;;;;;;;5.48;35.78;99758.41;5106405;28;20040;-76
2022/01/09 00:22:33;;;;;;;20.80;8.67;;;;;;;5.50;35.70;99727.53;5090331;28;20040;-75
2022/01/09 00:24:59;;;;;;;21.53;8.33;;;;;;;5.42;35.20;99687.78;5076810;28;20093;-76
2022/01/09 00:27:25;;;;;;;15.03;8.20;;;;;;;5.79;35.04;99751.50;5074829;28;20484;-77
2022/01/09 00:29:51;;;;;;;16.10;8.33;;;;;;;5.42;35.27;99719.41;5092398;28;20450;-75
2022/01/09 00:32:16;;;;;;;18.77;7.67;;;;;;;5.96;34.85;99714.94;5059109;28;20040;-75
2022/01/09 00:34:42;;;;;;;15.93;7.63;;;;;;;5.77;34.82;99721.78;5107679;28;20127;-76
2022/01/09 00:37:08;;;;;;;15.30;8.20;;;;;;;5.66;34.98;99720.03;5091268;28;20496;-76
2022/01/09 00:39:34;;;;;;;21.60;7.70;;;;;;;5.75;34.78;99715.81;5108454;28;20181;-76
2022/01/09 00:41:59;;;;;;;17.90;8.33;;;;;;;5.85;34.72;99714.97;5091765;28;20048;-76
2022/01/09 00:44:25;;;;;;;15.20;7.70;;;;;;;6.02;34.33;99698.59;5057870;28;20082;-77
2022/01/09 00:46:53;;;;;;;17.90;7.60;;;;;;;5.74;34.33;99682.50;5091733;28;20525;-76
2022/01/09 00:49:19;;;;;;;15.03;7.37;;;;;;;5.84;34.77;99705.41;5092034;28;20486;-75
2022/01/09 00:51:44;;;;;;;17.17;7.70;;;;;;;5.58;34.97;99696.09;5092500;28;20064;-76
2022/01/09 00:54:10;;;;;;;15.73;8.37;;;;;;;5.76;34.68;99697.25;5092420;28;20039;-76
2022/01/09 00:56:36;;;;;;;16.67;7.37;;;;;;;5.88;34.55;99712.09;5092450;28;20039;-75
2022/01/09 00:59:04;;;;;;;16.57;7.30;;;;;;;5.55;34.67;99656.03;5091335;28;20503;-75
2022/01/09 01:01:30;;;;;;;16.53;7.63;;;;;;;5.72;34.75;99695.00;5091386;28;20040;-75
2022/01/09 01:03:56;;;;;;;15.03;6.97;;;;;;;5.60;34.58;99652.03;5091500;28;20040;-75
2022/01/09 01:06:24;;;;;;;18.10;7.57;;;;;;;5.33;34.64;99635.88;5091584;28;20044;-75
2022/01/09 01:08:50;;;;;;;16.10;7.43;;;;;;;5.63;34.57;99695.75;5074773;28;20040;-76
2022/01/09 01:11:18;;;;;;;18.30;7.27;;;;;;;5.76;34.51;99694.63;5092093;28;20098;-76
2022/01/09 01:13:44;;;;;;;15.93;7.53;;;;;;;5.59;34.79;99666.19;5108112;28;20380;-76
2022/01/09 01:16:09;;;;;;;18.23;8.47;;;;;;;5.93;34.43;99657.19;5057155;28;20056;-75
2022/01/09 01:18:35;;;;;;;16.67;8.70;;;;;;;6.19;34.02;99663.75;5090431;28;20044;-75
2022/01/09 01:21:01;;;;;;;19.20;8.33;;;;;;;6.01;34.24;99667.09;5073613;28;20055;-74
2022/01/09 01:23:27;;;;;;;16.07;7.70;;;;;;;6.29;33.90;99669.91;5092211;28;20040;-75
2022/01/09 01:25:53;;;;;;;15.93;8.40;;;;;;;6.12;33.85;99677.59;5091732;28;20066;-76
2022/01/09 01:28:19;;;;;;;17.00;8.43;;;;;;;6.18;34.14;99671.78;5107531;28;20051;-75
2022/01/09 01:30:45;;;;;;;16.03;8.47;;;;;;;6.05;34.26;99671.97;5073519;28;20063;-75
2022/01/09 01:33:11;;;;;;;19.27;8.90;;;;;;;6.20;34.05;99654.84;5089623;28;20495;-76
2022/01/09 01:35:37;;;;;;;21.17;8.67;;;;;;;5.56;34.20;99618.19;5088089;28;20089;-76
2022/01/09 01:38:02;;;;;;;20.17;9.33;;;;;;;5.77;34.10;99650.63;5088288;28;20040;-76
2022/01/09 01:40:28;;;;;;;19.20;8.17;;;;;;;5.86;34.19;99655.19;5071541;28;20063;-76
2022/01/09 01:42:54;;;;;;;15.70;8.73;;;;;;;5.78;34.27;99653.16;5105213;28;20491;-76
2022/01/09 01:45:20;;;;;;;15.83;8.53;;;;;;;5.48;34.66;99626.72;5072192;28;20142;-75
2022/01/09 01:47:46;;;;;;;19.43;8.87;;;;;;;5.63;34.85;99645.69;5056064;28;20094;-75
2022/01/09 01:50:13;;;;;;;23.13;9.47;;;;;;;5.87;34.89;99654.22;5089825;28;20063;-75
2022/01/09 01:52:44;;;;;;;25.60;8.70;;;;;;;5.90;35.07;99636.38;5106476;28;20085;-74
2022/01/09 01:55:11;;;;;;;20.67;8.57;;;;;;;6.20;34.18;99636.41;5090618;28;20522;-74
2022/01/09 01:57:41;;;;;;;18.33;9.10;;;;;;;6.35;34.25;99653.53;5072549;28;20047;-74
2022/01/09 02:00:11;;;;;;;16.58;8.63;;;;;;;6.40;33.99;99638.16;5089717;28;20032;-74
2022/01/09 02:02:37;;;;;;;17.73;8.77;;;;;;;5.89;34.47;99628.59;5073246;28;20050;-74
2022/01/09 02:05:07;;;;;;;20.97;9.83;;;;;;;6.32;34.31;99616.06;5072363;28;20071;-75
2022/01/09 02:07:33;;;;;;;18.97;9.10;;;;;;;5.85;34.52;99612.19;5055725;28;20410;-75
2022/01/09 02:09:59;;;;;;;24.80;10.13;;;;;;;6.14;33.55;99602.66;5072564;28;20040;-74
2022/01/09 02:12:25;;;;;;;25.90;10.43;;;;;;;6.20;33.88;99598.63;5072055;28;20048;-75
2022/01/09 02:14:51;;;;;;;19.30;9.67;;;;;;;5.80;34.00;99587.13;5072777;28;20040;-76
2022/01/09 02:17:21;;;;;;;24.10;10.63;;;;;;;6.69;33.66;99593.41;5056002;28;20040;-76
2022/01/09 02:19:54;;;;;;;16.60;8.80;;;;;;;6.59;33.36;99568.81;5040963;28;20040;-77
2022/01/09 02:22:21;;;;;;;22.23;9.27;;;;;;;6.09;33.82;99610.09;5091762;28;20074;-77
2022/01/09 02:24:46;;;;;;;18.63;9.03;;;;;;;6.09;33.80;99604.03;5090225;28;20047;-75
2022/01/09 02:27:13;;;;;;;17.43;8.53;;;;;;;6.21;33.57;99608.25;5089720;28;20446;-75
2022/01/09 02:29:41;;;;;;;22.63;8.93;;;;;;;5.99;33.76;99618.94;5089809;28;20143;-77
2022/01/09 02:32:07;;;;;;;16.97;8.23;;;;;;;6.11;33.71;99600.28;5056278;28;20044;-76
2022/01/09 02:34:33;;;;;;;22.83;9.07;;;;;;;6.34;33.40;99609.69;5056751;28;20553;-77
2022/01/09 02:36:59;;;;;;;20.77;9.07;;;;;;;5.88;33.69;99604.03;5090055;28;20093;-75
2022/01/09 02:39:25;;;;;;;17.60;7.53;;;;;;;5.97;33.50;99605.03;5073371;28;20043;-76
2022/01/09 02:41:50;;;;;;;20.17;8.40;;;;;;;5.94;33.42;99616.69;5090409;28;20044;-77
2022/01/09 02:44:16;;;;;;;22.97;8.57;;;;;;;6.12;33.53;99609.03;5090307;28;20044;-70
2022/01/09 02:47:01;;;;;;;18.77;8.67;;;;;;;5.75;33.93;99603.34;5090321;28;20051;-74
2022/01/09 02:49:28;;;;;;;21.23;9.00;;;;;;;5.85;33.60;99601.66;5090788;28;20360;-74
2022/01/09 02:51:54;;;;;;;17.50;8.50;;;;;;;5.26;34.49;99597.81;5105487;28;20046;-74
2022/01/09 02:57:04;;;;;;;18.47;8.40;;;;;;;5.97;33.57;99605.88;5106741;28;20088;-73
2022/01/09 02:59:30;;;;;;;17.63;8.60;;;;;;;5.30;34.17;99609.81;5076728;28;20043;-73
2022/01/09 03:01:56;;;;;;;16.20;8.57;;;;;;;5.56;34.07;99592.69;5094593;28;20044;-74
2022/01/09 03:04:24;;;;;;;23.93;8.50;;;;;;;5.92;33.89;99607.25;5093281;28;20054;-73
2022/01/09 03:06:50;;;;;;;17.60;8.43;;;;;;;5.60;33.67;99601.13;5042926;28;20475;-73
2022/01/09 03:09:15;;;;;;;19.53;8.43;;;;;;;5.53;33.54;99553.44;5076232;28;20050;-74
2022/01/09 03:11:41;;;;;;;18.43;8.37;;;;;;;6.14;33.31;99597.38;5075838;28;20145;-74
2022/01/09 03:14:07;;;;;;;23.33;8.80;;;;;;;5.88;33.41;99597.91;5059715;28;20373;-74
2022/01/09 03:16:34;;;;;;;26.40;8.63;;;;;;;5.76;33.72;99570.78;5076821;28;20040;-74
2022/01/09 03:19:00;;;;;;;17.30;9.00;;;;;;;5.54;33.59;99585.84;5110737;28;20052;-73
2022/01/09 03:21:26;;;;;;;19.47;9.27;;;;;;;5.60;33.60;99593.25;5075768;28;20055;-74
2022/01/09 03:23:51;;;;;;;19.10;8.40;;;;;;;5.16;33.73;99544.28;5059211;28;20403;-74
2022/01/09 03:26:17;;;;;;;15.97;7.60;;;;;;;5.42;33.65;99597.41;5076148;28;20039;-75
2022/01/09 03:28:46;;;;;;;17.90;8.53;;;;;;;5.60;33.63;99591.44;5060228;28;20044;-74
2022/01/09 03:31:12;;;;;;;13.53;7.60;;;;;;;5.14;33.77;99557.56;5109616;28;20146;-74
2022/01/09 03:33:37;;;;;;;20.27;7.97;;;;;;;5.46;33.14;99598.84;5109643;28;20044;-74
2022/01/09 03:36:03;;;;;;;22.73;7.43;;;;;;;5.38;33.45;99578.41;5092454;28;20040;-72
2022/01/09 03:38:29;;;;;;;14.70;6.90;;;;;;;5.33;33.38;99577.09;5075581;28;20039;-72
2022/01/09 03:40:55;;;;;;;20.10;7.97;;;;;;;5.63;33.14;99587.75;5041493;28;20910;-73
2022/01/09 03:43:21;;;;;;;21.07;8.13;;;;;;;5.64;32.84;99577.06;5092369;28;20047;-74
2022/01/09 03:45:46;;;;;;;14.93;7.20;;;;;;;5.91;32.47;99572.13;5074581;28;20059;-74
2022/01/09 03:48:12;;;;;;;19.77;7.83;;;;;;;5.86;32.00;99555.06;5074881;28;20044;-74
2022/01/09 03:50:38;;;;;;;14.13;7.30;;;;;;;5.84;32.24;99564.88;5073304;28;20044;-73
2022/01/09 03:53:04;;;;;;;19.87;8.40;;;;;;;5.92;32.20;99555.34;5091301;28;20801;-74
2022/01/09 03:55:30;;;;;;;20.40;8.90;;;;;;;6.01;31.52;99573.00;5089020;28;20070;-73
2022/01/09 03:57:56;;;;;;;23.40;8.73;;;;;;;5.91;31.61;99580.03;5090098;28;20594;-74
2022/01/09 04:00:23;;;;;;;19.33;8.20;;;;;;;6.14;31.77;99576.28;5074491;28;20546;-73
2022/01/09 04:02:51;;;;;;;14.57;6.27;;;;;;;5.89;31.91;99573.25;5057717;28;20082;-74
2022/01/09 04:05:17;;;;;;;15.30;7.27;;;;;;;5.83;31.70;99552.66;5041357;28;20131;-74
2022/01/09 04:07:46;;;;;;;11.73;6.87;;;;;;;6.05;31.77;99563.88;5091166;28;20109;-75
2022/01/09 04:10:11;;;;;;;13.60;6.73;;;;;;;5.60;31.51;99566.91;5109227;28;20047;-74
2022/01/09 04:12:48;;;;;;;17.47;6.60;;;;;;;6.39;31.25;99569.72;5074727;28;20056;-79
2022/01/09 04:15:14;;;;;;;17.60;7.20;;;;;;;6.22;30.97;99563.28;5074827;28;20047;-74
2022/01/09 04:20:08;;;;;;;13.10;6.07;;;;;;;5.35;31.69;99552.31;5055365;28;20044;-74
2022/01/09 04:22:33;;;;;;;12.70;6.27;;;;;;;5.40;31.38;99573.03;5090150;28;20048;-74
2022/01/09 04:24:59;;;;;;;13.77;5.70;;;;;;;5.45;30.99;99574.28;5107804;28;20048;-72
2022/01/09 04:27:25;;;;;;;12.33;6.27;;;;;;;5.34;31.18;99595.41;5073776;28;20412;-72
2022/01/09 04:29:51;;;;;;;11.83;5.83;;;;;;;5.34;30.99;99579.59;5090784;28;20475;-73
2022/01/09 04:32:16;;;;;;;15.57;6.43;;;;;;;5.66;30.62;99561.97;5107882;28;20041;-75
2022/01/09 04:34:42;;;;;;;14.20;5.90;;;;;;;5.32;31.01;99580.72;5041493;28;21087;-76
2022/01/09 04:37:09;;;;;;;15.67;6.13;;;;;;;5.37;30.70;99567.97;5091498;28;20578;-79
2022/01/09 04:39:35;;;;;;;13.80;6.10;;;;;;;5.74;30.51;99570.06;5092704;28;20356;-73
2022/01/09 04:42:01;;;;;;;11.60;5.93;;;;;;;5.42;30.57;99585.09;5074266;28;20036;-74
2022/01/09 04:44:27;;;;;;;10.20;5.57;;;;;;;5.49;30.48;99586.22;5107821;28;20044;-73
2022/01/09 04:46:58;;;;;;;12.57;5.80;;;;;;;5.14;30.62;99530.41;5091299;28;20048;-73
2022/01/09 04:49:27;;;;;;;12.40;5.87;;;;;;;5.07;30.65;99539.78;5090597;28;20181;-73
2022/01/09 04:51:54;;;;;;;12.37;5.87;;;;;;;5.22;30.59;99580.63;5106997;28;20036;-74
2022/01/09 04:54:20;;;;;;;14.63;5.83;;;;;;;5.38;30.72;99591.59;5090411;28;20044;-74
2022/01/09 04:56:46;;;;;;;13.73;5.47;;;;;;;5.25;30.57;99585.63;5090305;28;20052;-74
2022/01/09 04:59:12;;;;;;;8.73;5.47;;;;;;;5.06;30.75;99564.41;5073585;28;20135;-73
2022/01/09 05:01:37;;;;;;;10.53;5.23;;;;;;;4.91;30.12;99540.19;5090824;28;20044;-73
2022/01/09 05:04:06;;;;;;;11.77;5.90;;;;;;;5.22;30.39;99578.00;5107889;28;20131;-72
2022/01/09 05:06:32;;;;;;;15.27;6.27;;;;;;;5.52;30.06;99572.81;5073766;28;20139;-73
2022/01/09 05:08:58;;;;;;;9.63;5.27;;;;;;;5.42;29.63;99569.28;5039953;28;20099;-72
2022/01/09 05:11:23;;;;;;;13.37;6.07;;;;;;;5.23;29.66;99572.59;5056275;28;20055;-72
2022/01/09 05:13:49;;;;;;;10.83;5.97;;;;;;;4.81;30.38;99585.78;5090492;28;20138;-73
2022/01/09 05:16:15;;;;;;;10.53;5.83;;;;;;;5.02;30.27;99555.94;5074184;28;20135;-77
2022/01/09 05:18:51;;;;;;;9.17;5.67;;;;;;;5.41;29.86;99570.25;5091884;28;20048;-77
2022/01/09 05:21:19;;;;;;;9.67;5.33;;;;;;;5.80;29.80;99582.72;5092649;28;20481;-79
2022/01/09 05:23:46;;;;;;;11.80;7.03;;;;;;;5.60;29.82;99572.16;5076004;28;20109;-76
2022/01/09 05:26:15;;;;;;;11.05;5.80;;;;;;;5.27;29.75;99570.56;5073752;28;20139;-69
2022/01/09 05:28:41;;;;;;;13.73;5.60;;;;;;;5.38;29.63;99577.56;5107574;28;20130;-73
2022/01/09 05:31:07;;;;;;;11.33;5.80;;;;;;;5.16;29.94;99552.16;5090401;28;20465;-74
2022/01/09 05:33:34;;;;;;;10.70;5.63;;;;;;;5.46;29.84;99570.69;5107244;28;20078;-75
2022/01/09 05:36:03;;;;;;;9.63;5.30;;;;;;;5.53;29.61;99563.13;5106370;28;20503;-75
2022/01/09 05:38:29;;;;;;;25.27;6.13;;;;;;;5.56;29.61;99578.66;5089719;28;20075;-74
2022/01/09 05:40:55;;;;;;;13.17;6.33;;;;;;;5.32;29.74;99549.09;5089840;28;20067;-72
2022/01/09 05:43:24;;;;;;;12.70;5.90;;;;;;;5.68;29.33;99580.28;5073249;28;20097;-72
2022/01/09 05:45:49;;;;;;;9.90;5.83;;;;;;;5.16;29.55;99573.22;5107915;28;20483;-71
2022/01/09 05:48:16;;;;;;;11.13;5.97;;;;;;;4.89;29.62;99555.25;5091029;28;20044;-76
2022/01/09 05:50:43;;;;;;;13.20;6.37;;;;;;;5.67;29.39;99568.06;5106462;28;20046;-71
2022/01/09 05:53:09;;;;;;;9.93;5.70;;;;;;;5.23;29.35;99590.19;5090665;28;20146;-75
2022/01/09 05:55:35;;;;;;;12.17;6.23;;;;;;;5.50;29.34;99582.66;5072498;28;20068;-72
2022/01/09 05:58:01;;;;;;;10.70;5.90;;;;;;;5.20;29.48;99583.38;5074916;28;20165;-83
2022/01/09 06:00:27;;;;;;;14.27;5.67;;;;;;;5.22;29.44;99592.00;5091418;28;20385;-74
2022/01/09 06:02:53;;;;;;;14.27;6.13;;;;;;;5.42;29.16;99592.97;5056602;28;20051;-74
2022/01/09 06:05:18;;;;;;;10.43;6.07;;;;;;;5.25;29.39;99590.91;5090132;28;20047;-77
2022/01/09 06:07:44;;;;;;;12.53;5.97;;;;;;;5.57;29.34;99599.59;5090486;28;20043;-72
2022/01/09 06:10:11;;;;;;;10.53;5.80;;;;;;;5.67;29.06;99586.50;5089710;28;20055;-75
2022/01/09 06:12:37;;;;;;;12.20;5.97;;;;;;;5.12;29.11;99606.84;5090295;28;20078;-75
2022/01/09 06:15:03;;;;;;;13.80;6.10;;;;;;;5.40;29.29;99592.28;5089277;28;20463;-74
2022/01/09 06:17:35;;;;;;;12.23;6.00;;;;;;;5.81;28.92;99608.09;5089679;28;20152;-74
2022/01/09 06:20:00;;;;;;;12.93;5.63;;;;;;;5.25;29.09;99598.81;5088807;28;20168;-72
2022/01/09 06:22:28;;;;;;;9.47;5.03;;;;;;;4.76;28.33;99572.16;5038712;28;20131;-72
2022/01/09 06:24:53;;;;;;;11.13;5.87;;;;;;;5.36;28.50;99605.81;5088592;28;20181;-73
2022/01/09 06:27:21;;;;;;;10.30;5.90;;;;;;;5.50;28.51;99589.72;5071810;28;20131;-73
2022/01/09 06:29:47;;;;;;;9.60;4.93;;;;;;;5.39;28.65;99587.97;5090035;28;20032;-74
2022/01/09 06:32:13;;;;;;;10.50;5.67;;;;;;;5.02;28.64;99592.78;5072317;28;20044;-73
2022/01/09 06:34:41;;;;;;;11.40;5.97;;;;;;;5.33;28.54;99591.13;5089187;28;20040;-74
2022/01/09 06:37:07;;;;;;;9.40;5.40;;;;;;;5.43;28.63;99596.47;5088643;28;20047;-72
2022/01/09 06:39:33;;;;;;;13.80;6.10;;;;;;;5.05;28.66;99571.47;5095586;28;20031;-74
2022/01/09 06:41:58;;;;;;;9.93;5.90;;;;;;;5.35;28.79;99609.41;5075169;28;20415;-74
2022/01/09 06:44:24;;;;;;;13.03;5.77;;;;;;;5.44;28.12;99613.94;5109246;28;20403;-74
2022/01/09 06:46:50;;;;;;;12.07;5.43;;;;;;;5.52;28.36;99603.59;5109437;28;20050;-73
2022/01/09 06:49:16;;;;;;;10.27;5.57;;;;;;;4.89;28.48;99499.16;5092424;28;20519;-71
2022/01/09 06:51:42;;;;;;;10.53;5.53;;;;;;;5.25;28.42;99598.81;5093658;28;20127;-74
2022/01/09 06:54:08;;;;;;;11.50;4.97;;;;;;;5.51;28.11;99605.38;5092927;28;20132;-74
2022/01/09 06:56:34;;;;;;;12.70;5.77;;;;;;;5.52;28.00;99619.41;5108783;28;20058;-74
2022/01/09 06:58:59;;;;;;;13.23;5.10;;;;;;;5.19;28.32;99608.03;5109757;28;20562;-74
2022/01/09 07:01:25;;;;;;;12.17;5.73;;;;;;;5.50;28.01;99598.47;5082144;28;20117;-75
2022/01/09 07:03:51;;;;;;;11.67;5.30;;;;;;;5.22;28.21;99596.41;5079701;28;20515;-75
2022/01/09 07:06:19;;;;;;;10.87;5.70;;;;;;;5.80;27.83;99580.06;5054348;28;20139;-74
2022/01/09 07:08:45;;;;;;;15.20;5.60;;;;;;;5.56;27.40;99603.22;5089846;28;20121;-75
2022/01/09 07:11:11;;;;;;;12.17;5.63;;;;;;;5.62;27.42;99613.25;5090040;28;20503;-75
2022/01/09 07:13:36;;;;;;;7.87;4.80;;;;;;;5.78;27.49;99589.91;5088007;28;20082;-75
2022/01/09 07:16:02;;;;;;;12.00;5.60;;;;;;;5.80;27.13;99595.03;5070521;28;20036;-74
2022/01/09 07:18:30;;;;;;;10.50;5.07;;;;;;;5.77;27.54;99561.88;5087937;28;20048;-74
2022/01/09 07:20:56;;;;;;;9.73;5.50;;;;;;;5.89;27.27;99592.50;5088263;28;20043;-77
2022/01/09 07:23:22;;;;;;;9.40;5.20;;;;;;;5.62;27.31;99600.06;5054938;28;20047;-75
2022/01/09 07:25:47;;;;;;;10.27;4.70;;;;;;;5.77;27.32;99585.59;5096925;28;20051;-75
2022/01/09 07:28:13;;;;;;;12.17;6.37;;;;;;;6.10;27.00;99589.84;5109452;28;20043;-77
2022/01/09 07:30:39;;;;;;;11.43;4.97;;;;;;;5.92;27.32;99576.44;5075660;28;20046;-75
2022/01/09 07:33:05;;;;;;;13.13;5.60;;;;;;;5.93;27.20;99578.13;5110589;28;20047;-76
2022/01/09 07:35:31;;;;;;;10.80;5.67;;;;;;;6.42;27.98;99580.84;5092315;28;20039;-76
2022/01/09 07:37:57;;;;;;;10.70;5.07;;;;;;;6.22;27.18;99604.63;5074076;28;20117;-74
2022/01/09 07:40:23;;;;;;;14.70;5.37;;;;;;;6.17;27.47;99567.25;5107993;28;20507;-73
2022/01/09 07:42:49;;;;;;;10.10;5.07;;;;;;;6.16;27.34;99571.72;5091074;28;20043;-73
2022/01/09 07:45:16;;;;;;;10.37;5.30;;;;;;;6.47;27.25;99581.25;5112583;28;20046;-75
2022/01/09 07:47:42;;;;;;;12.27;5.43;;;;;;;6.05;27.39;99555.13;5112455;28;20039;-74
2022/01/09 07:50:14;;;;;;;10.73;5.30;;;;;;;6.48;27.24;99563.63;5094584;28;20067;-74
2022/01/09 07:52:40;;;;;;;11.77;5.97;;;;;;;6.12;27.54;99588.75;5095800;28;20051;-74
2022/01/09 07:55:10;;;;;;;10.53;5.57;;;;;;;6.58;27.32;99597.00;5112653;28;20100;-76
2022/01/09 07:57:36;;;;;;;8.80;5.45;;;;;;;6.58;27.23;99583.81;5095056;28;20075;-74
2022/01/09 08:00:07;;;;;;;9.70;5.30;;;;;;;7.10;26.83;99585.31;5077840;28;20040;-71
2022/01/09 08:02:40;;;;;;;10.67;5.50;;;;;;;6.36;27.03;99572.63;5096103;28;20047;-72
2022/01/09 08:05:09;;;;;;;10.93;5.17;;;;;;;6.73;26.87;99600.94;5096834;28;20441;-78
2022/01/09 08:07:35;;;;;;;10.03;5.23;;;;;;;6.66;27.00;99594.53;5114116;28;20047;-71
2022/01/09 08:10:05;;;;;;;11.80;5.33;;;;;;;6.36;27.07;99588.44;5094994;28;20044;-75
2022/01/09 08:12:32;;;;;;;10.15;5.10;;;;;;;6.38;27.06;99587.34;5077707;28;20055;-79
2022/01/09 08:14:58;;;;;;;14.90;5.50;;;;;;;6.53;26.88;99593.91;5094237;28;20048;-73
2022/01/09 08:17:24;;;;;;;13.03;5.80;;;;;;;5.95;26.96;99491.81;5091383;28;20086;-73
2022/01/09 08:19:50;;;;;;;9.30;5.20;;;;;;;6.53;26.70;99580.72;5077397;28;20048;-71
2022/01/09 08:22:16;;;;;;;9.70;5.37;;;;;;;6.46;26.85;99582.25;5092589;28;20049;-74
2022/01/09 08:24:42;;;;;;;8.63;4.87;;;;;;;6.12;27.00;99533.38;5061388;28;20040;-74
2022/01/09 08:27:09;;;;;;;10.73;5.30;;;;;;;6.98;26.86;99575.00;5111730;28;20087;-75
2022/01/09 08:29:35;;;;;;;8.93;4.73;;;;;;;6.80;26.85;99585.41;5094747;28;20081;-74
2022/01/09 08:32:01;;;;;;;12.17;5.80;;;;;;;7.07;26.83;99579.47;5092717;28;20036;-72
2022/01/09 08:34:27;;;;;;;12.90;6.00;;;;;;;6.83;26.92;99577.19;5081175;28;20036;-75
2022/01/09 08:36:53;;;;;;;9.17;4.90;;;;;;;6.45;26.66;99580.59;5089637;28;20070;-76
2022/01/09 08:39:19;;;;;;;10.37;5.70;;;;;;;6.86;26.60;99569.84;5089612;28;20499;-74
2022/01/09 08:41:45;;;;;;;11.07;5.27;;;;;;;6.92;26.52;99567.66;5084689;28;20036;-76
2022/01/09 08:44:11;;;;;;;10.60;5.30;;;;;;;6.33;26.40;99534.19;5070662;28;20101;-77
2022/01/09 08:46:38;;;;;;;10.50;5.23;;;;;;;6.77;26.17;99562.75;5054165;28;20452;-77
2022/01/09 08:49:04;;;;;;;11.63;5.43;;;;;;;7.05;26.11;99576.13;5086985;28;20040;-75
2022/01/09 08:51:31;;;;;;;11.73;5.70;;;;;;;6.61;26.63;99553.69;5088703;28;20052;-75
2022/01/09 08:53:57;;;;;;;10.53;5.17;;;;;;;6.56;26.50;99564.66;5053135;28;20039;-73
2022/01/09 08:56:25;;;;;;;16.33;7.93;;;;;;;7.21;26.32;99539.47;5091403;28;20044;-73
2022/01/09 08:58:51;;;;;;;13.93;6.07;;;;;;;7.21;26.54;99550.84;5106493;28;20042;-70
2022/01/09 09:01:17;;;;;;;18.70;7.17;;;;;;;6.79;26.19;99558.19;5078053;28;20530;-73
2022/01/09 09:03:44;;;;;;;11.73;5.13;;;;;;;6.88;26.09;99578.47;5070381;28;20088;-73
2022/01/09 09:06:12;;;;;;;7.50;4.50;;;;;;;7.06;26.19;99565.44;5088359;28;20048;-74
2022/01/09 09:08:38;;;;;;;7.90;4.73;;;;;;;6.44;26.16;99563.06;5069653;28;20184;-74
2022/01/09 09:11:06;;;;;;;12.93;4.87;;;;;;;6.92;26.30;99551.81;5069796;28;20054;-73
2022/01/09 09:13:31;;;;;;;8.63;4.47;;;;;;;6.49;26.31;99549.47;5086273;28;20193;-73
2022/01/09 09:15:57;;;;;;;9.43;5.13;;;;;;;6.31;26.08;99554.56;5036589;28;20155;-73
2022/01/09 09:18:25;;;;;;;11.77;4.77;;;;;;;6.60;26.08;99536.19;5069847;28;20043;-73
2022/01/09 09:20:53;;;;;;;13.73;5.53;;;;;;;7.22;26.06;99554.31;5087786;28;20948;-73
2022/01/09 09:23:20;;;;;;;13.43;5.40;;;;;;;7.43;25.82;99528.56;5087440;28;20043;-73
2022/01/09 09:25:47;;;;;;;8.90;5.20;;;;;;;7.43;25.47;99552.34;5084100;28;20048;-73
2022/01/09 09:28:13;;;;;;;13.27;5.20;;;;;;;7.30;25.48;99557.09;5077859;28;20059;-73
2022/01/09 09:30:39;;;;;;;10.90;4.67;;;;;;;7.28;25.29;99554.59;5074347;28;20049;-73
2022/01/09 09:33:05;;;;;;;10.80;4.50;;;;;;;7.16;25.57;99533.75;5086183;28;20056;-71
2022/01/09 09:35:32;;;;;;;10.60;5.30;;;;;;;7.69;25.47;99532.28;5089781;28;20514;-71
2022/01/09 09:37:58;;;;;;;10.43;5.27;;;;;;;7.65;25.96;99544.13;5052589;28;20054;-71
2022/01/09 09:40:25;;;;;;;13.17;5.80;;;;;;;8.13;25.41;99510.47;5087231;28;20044;-75
2022/01/09 09:42:51;;;;;;;15.73;6.30;;;;;;;8.16;25.06;99534.78;5092820;28;20070;-72
2022/01/09 09:45:19;;;;;;;11.90;6.33;;;;;;;7.79;24.45;99514.63;5053612;28;20523;-73
2022/01/09 09:47:45;;;;;;;10.83;5.27;;;;;;;7.52;24.53;99539.13;5069771;28;20044;-74
2022/01/09 09:50:17;;;;;;;12.73;5.03;;;;;;;8.24;24.58;99534.13;5087951;28;20106;-73
2022/01/09 09:52:46;;;;;;;10.63;5.10;;;;;;;8.16;24.79;99536.63;5068633;28;20036;-73
2022/01/09 09:55:13;;;;;;;12.53;5.63;;;;;;;7.82;24.97;99495.81;5068785;28;20040;-72
2022/01/09 09:57:39;;;;;;;10.83;5.37;;;;;;;7.82;24.75;99536.31;5051816;28;20052;-71
2022/01/09 10:00:13;;;;;;;6.63;4.83;;;;;;;8.05;24.34;99534.16;5035669;28;20036;-71
2022/01/09 10:02:42;;;;;;;9.03;4.67;;;;;;;7.67;24.94;99537.72;5068212;28;20043;-72
2022/01/09 10:05:08;;;;;;;10.00;5.17;;;;;;;7.29;25.13;99524.56;5068913;28;20576;-74
2022/01/09 10:07:34;;;;;;;7.37;4.50;;;;;;;7.51;24.60;99526.91;5085788;28;20187;-73
2022/01/09 10:10:04;;;;;;;8.80;4.57;;;;;;;7.91;25.63;99521.38;5069115;28;20044;-74
2022/01/09 10:12:31;;;;;;;7.67;4.70;;;;;;;8.05;24.45;99527.06;5068398;28;20120;-72
2022/01/09 10:15:00;;;;;;;12.80;5.07;;;;;;;8.28;24.78;99515.16;5069027;28;20279;-73
2022/01/09 10:17:27;;;;;;;11.17;5.43;;;;;;;8.26;24.27;99516.28;5085773;28;20048;-75
2022/01/09 10:19:52;;;;;;;13.17;6.47;;;;;;;8.05;24.71;99519.13;5069074;28;20063;-73
2022/01/09 10:22:33;;;;;;;11.97;5.83;;;;;;;8.59;24.12;99518.34;5085030;28;20044;-72
2022/01/09 10:25:19;;;;;;;;;;;;;;;9.12;23.89;99524.50;5067706;28;20177;-73
2022/01/09 10:27:46;;;;;;;7.90;4.80;;;;;;;8.17;24.15;99474.78;5088143;28;20010;-78
2022/01/09 10:30:12;;;;;;;10.70;5.30;;;;;;;8.42;24.25;99514.69;5085796;28;20488;-73
2022/01/09 10:32:39;;;;;;;9.37;5.10;;;;;;;8.61;23.85;99516.34;5068501;28;20040;-75
2022/01/09 10:35:11;;;;;;;9.33;4.90;;;;;;;8.81;24.17;99512.59;5085769;28;20047;-73
2022/01/09 10:37:38;;;;;;;12.03;5.77;;;;;;;8.37;23.83;99481.69;5089131;28;20040;-79
2022/01/09 10:40:08;;;;;;;15.90;5.83;;;;;;;8.87;24.25;99513.84;5078686;28;20043;-78
2022/01/09 10:42:35;;;;;;;9.03;5.10;;;;;;;8.43;23.49;99507.56;5096493;28;20040;-77
2022/01/09 10:45:23;;;;;;;9.43;4.87;;;;;;;8.74;23.61;99508.06;5079168;28;20048;-82
2022/01/09 10:47:55;;;;;;;10.87;5.50;;;;;;;8.46;23.93;99508.09;5082759;28;20036;-79
2022/01/09 10:50:29;;;;;;;9.37;5.30;;;;;;;8.89;23.64;99502.09;5080897;28;20123;-74
2022/01/09 10:53:15;;;;;;;10.50;5.20;;;;;;;9.07;23.66;99504.75;5096838;28;20127;-72
2022/01/09 10:55:42;;;;;;;9.53;5.50;;;;;;;8.63;23.24;99493.22;5080732;28;20040;-74
2022/01/09 10:58:19;;;;;;;11.60;5.33;;;;;;;9.01;23.25;99492.94;5097431;28;20051;-80
2022/01/09 11:00:46;;;;;;;11.07;5.67;;;;;;;8.29;23.69;99492.16;5080998;28;20038;-74
2022/01/09 11:03:12;;;;;;;9.77;5.10;;;;;;;8.40;23.94;99486.69;5095648;28;20115;-75
2022/01/09 11:05:39;;;;;;;10.50;5.57;;;;;;;8.41;23.69;99483.88;5097721;28;20210;-71
2022/01/09 11:08:05;;;;;;;13.17;5.57;;;;;;;8.11;23.59;99459.50;5083113;28;20112;-78
2022/01/09 11:10:32;;;;;;;14.40;6.30;;;;;;;8.23;23.60;99482.16;5098927;28;20043;-75
2022/01/09 11:12:59;;;;;;;17.20;6.53;;;;;;;7.83;23.45;99465.75;5098497;28;20043;-76
2022/01/09 11:15:31;;;;;;;17.23;6.60;;;;;;;8.56;23.44;99468.34;5083216;28;20053;-79
2022/01/09 11:17:58;;;;;;;20.67;6.60;;;;;;;8.36;23.39;99472.09;5080971;28;20032;-75
2022/01/09 11:20:25;;;;;;;10.90;6.20;;;;;;;8.17;23.47;99474.78;5086553;28;20040;-73
2022/01/09 11:22:53;;;;;;;16.50;6.30;;;;;;;8.29;23.31;99484.22;5087027;28;20044;-74
2022/01/09 11:25:28;;;;;;;13.07;6.47;;;;;;;8.35;23.47;99479.19;5075467;28;20492;-73
2022/01/09 11:28:07;;;;;;;14.30;6.27;;;;;;;8.34;23.99;99481.97;5070680;28;20534;-73
2022/01/09 11:30:51;;;;;;;14.73;7.07;;;;;;;8.15;23.24;99476.75;5072409;28;20031;-77
2022/01/09 11:33:41;;;;;;;14.00;6.13;;;;;;;8.21;23.50;99468.25;5057517;28;20071;-73
2022/01/09 11:36:16;;;;;;;13.20;6.27;;;;;;;7.48;23.90;99462.94;5084305;28;20085;-76
2022/01/09 11:38:50;;;;;;;12.00;5.50;;;;;;;8.15;23.78;99469.66;5101034;28;20075;-80